createdAt,value
2022-12-04T00:00:35.099Z,7.2
2022-12-04T00:01:51.963Z,7.4
2022-12-04T00:03:08.984Z,7.4
2022-12-04T00:04:26.493Z,7.4
2022-12-04T00:05:43.022Z,7.2
2022-12-04T00:06:59.957Z,6.9
2022-12-04T00:08:17.038Z,6.7
2022-12-04T00:09:33.990Z,6.5
2022-12-04T00:10:51.059Z,6.5
2022-12-04T00:12:08.009Z,6.4
2022-12-04T00:13:24.963Z,6.5
2022-12-04T00:15:16.297Z,6.5
2022-12-04T00:15:59.027Z,6.4
2022-12-04T00:17:16.003Z,6.5
2022-12-04T00:18:32.975Z,6.7
2022-12-04T00:19:49.987Z,6.8
2022-12-04T00:21:06.994Z,6.8
2022-12-04T00:22:24.060Z,6.9
2022-12-04T00:23:40.994Z,6.9
2022-12-04T00:24:58.010Z,7
2022-12-04T00:26:14.983Z,7
2022-12-04T00:27:32.105Z,6.9
2022-12-04T00:28:49.001Z,6.8
2022-12-04T00:30:06.016Z,6.8
2022-12-04T00:31:23.088Z,6.9
2022-12-04T00:32:40.038Z,6.9
2022-12-04T00:33:57.081Z,6.8
2022-12-04T00:35:14.073Z,6.8
2022-12-04T00:36:31.016Z,6.8
2022-12-04T00:37:48.016Z,6.8
2022-12-04T00:39:05.039Z,6.8
2022-12-04T00:40:22.497Z,6.8
2022-12-04T00:41:40.032Z,6.7
2022-12-04T00:42:57.021Z,6.7
2022-12-04T00:44:14.195Z,6.9
2022-12-04T00:45:31.296Z,6.8
2022-12-04T00:46:49.040Z,6.8
2022-12-04T00:48:06.032Z,6.8
2022-12-04T00:49:23.023Z,6.9
2022-12-04T00:50:40.083Z,7
2022-12-04T00:51:57.026Z,6.8
2022-12-04T00:53:14.039Z,6.8
2022-12-04T00:54:31.289Z,6.7
2022-12-04T00:55:48.146Z,6.6
2022-12-04T00:57:05.029Z,6.6
2022-12-04T00:58:22.041Z,6.5
2022-12-04T00:59:39.031Z,6.6
2022-12-04T01:00:56.221Z,6.5
2022-12-04T01:02:13.071Z,6.3
2022-12-04T01:03:30.100Z,6.2
2022-12-04T01:04:47.037Z,6.2
2022-12-04T01:06:04.472Z,6.2
2022-12-04T01:07:21.040Z,6.2
2022-12-04T01:08:38.162Z,6.2
2022-12-04T01:09:55.309Z,6.3
2022-12-04T01:11:12.120Z,6.4
2022-12-04T01:12:29.078Z,6.6
2022-12-04T01:13:46.049Z,6.7
2022-12-04T01:15:03.266Z,6.6
2022-12-04T01:16:20.182Z,6.5
2022-12-04T01:17:37.078Z,6.5
2022-12-04T01:18:54.353Z,6.5
2022-12-04T01:20:11.141Z,6.5
2022-12-04T01:21:28.382Z,6.4
2022-12-04T01:22:45.160Z,6.5
2022-12-04T01:24:02.073Z,6.5
2022-12-04T01:25:19.063Z,6.5
2022-12-04T01:26:36.210Z,6.5
2022-12-04T01:27:53.101Z,6.6
2022-12-04T01:29:10.076Z,6.5
2022-12-04T01:30:27.083Z,6.6
2022-12-04T01:31:44.179Z,6.6
2022-12-04T01:33:01.153Z,6.8
2022-12-04T01:34:18.068Z,6.8
2022-12-04T01:35:35.444Z,6.9
2022-12-04T01:36:53.149Z,7
2022-12-04T01:38:10.083Z,7.1
2022-12-04T01:39:27.084Z,7.2
2022-12-04T01:40:44.085Z,7.2
2022-12-04T01:42:01.132Z,7
2022-12-04T01:43:18.116Z,6.9
2022-12-04T01:44:35.143Z,6.8
2022-12-04T01:45:52.150Z,6.7
2022-12-04T01:47:09.120Z,6.7
2022-12-04T01:48:26.125Z,6.7
2022-12-04T01:49:43.106Z,6.7
2022-12-04T01:51:00.099Z,6.7
2022-12-04T01:52:17.097Z,6.8
2022-12-04T01:53:34.131Z,6.8
2022-12-04T01:54:51.101Z,6.7
2022-12-04T01:56:08.116Z,6.7
2022-12-04T01:57:25.189Z,6.6
2022-12-04T01:58:42.167Z,6.5
2022-12-04T01:59:59.123Z,6.6
2022-12-04T02:01:16.144Z,6.7
2022-12-04T02:02:33.201Z,6.7
2022-12-04T02:03:50.179Z,6.7
2022-12-04T02:05:07.124Z,6.6
2022-12-04T02:06:24.147Z,6.6
2022-12-04T02:07:41.212Z,6.6
2022-12-04T02:08:58.316Z,6.6
2022-12-04T02:10:15.189Z,6.6
2022-12-04T02:11:32.152Z,6.5
2022-12-04T02:12:49.135Z,6.6
2022-12-04T02:14:06.180Z,6.7
2022-12-04T02:15:23.126Z,6.7
2022-12-04T02:16:40.224Z,6.8
2022-12-04T02:17:57.188Z,6.9
2022-12-04T02:19:14.138Z,7
2022-12-04T02:20:31.143Z,6.9
2022-12-04T02:21:48.161Z,6.7
2022-12-04T02:23:05.135Z,6.5
2022-12-04T02:24:22.651Z,6.4
2022-12-04T02:25:39.395Z,6.3
2022-12-04T02:26:56.142Z,6.1
2022-12-04T02:28:13.150Z,6
2022-12-04T02:29:30.204Z,6
2022-12-04T02:30:47.257Z,6.1
2022-12-04T02:32:04.172Z,6.3
2022-12-04T02:33:21.171Z,6.5
2022-12-04T02:34:38.159Z,6.6
2022-12-04T02:35:55.150Z,6.7
2022-12-04T02:37:12.179Z,6.8
2022-12-04T02:38:29.191Z,6.8
2022-12-04T02:39:46.147Z,6.9
2022-12-04T02:41:03.159Z,7
2022-12-04T02:42:20.168Z,7
2022-12-04T02:43:37.226Z,7
2022-12-04T02:44:54.202Z,7.1
2022-12-04T02:46:11.476Z,7.1
2022-12-04T02:47:28.168Z,7.1
2022-12-04T02:48:45.205Z,7.1
2022-12-04T02:50:02.308Z,7.1
2022-12-04T02:51:19.183Z,7.1
2022-12-04T02:52:36.209Z,7.1
2022-12-04T02:53:53.176Z,7.1
2022-12-04T02:55:10.240Z,7.1
2022-12-04T02:56:27.211Z,7.2
2022-12-04T02:57:44.211Z,7.3
2022-12-04T02:59:01.238Z,7.2
2022-12-04T03:00:18.245Z,7.2
2022-12-04T03:01:35.277Z,7.2
2022-12-04T03:02:52.304Z,7.2
2022-12-04T03:04:09.205Z,7.1
2022-12-04T03:05:26.237Z,6.9
2022-12-04T03:06:43.304Z,6.6
2022-12-04T03:08:00.308Z,6.3
2022-12-04T03:09:17.209Z,6.1
2022-12-04T03:10:34.228Z,5.9
2022-12-04T03:11:51.281Z,5.7
2022-12-04T03:13:08.206Z,5.6
2022-12-04T03:14:25.209Z,5.6
2022-12-04T03:15:42.329Z,5.6
2022-12-04T03:16:59.294Z,5.7
2022-12-04T03:18:16.254Z,5.9
2022-12-04T03:19:33.208Z,6
2022-12-04T03:20:50.241Z,6.1
2022-12-04T03:22:07.251Z,6.2
2022-12-04T03:23:24.223Z,6.3
2022-12-04T03:24:41.220Z,6.3
2022-12-04T03:25:58.226Z,6.3
2022-12-04T03:27:15.249Z,6.3
2022-12-04T03:28:32.224Z,6.3
2022-12-04T03:29:49.221Z,6.3
2022-12-04T03:31:06.989Z,6.2
2022-12-04T03:32:24.234Z,6.2
2022-12-04T03:33:41.241Z,6.4
2022-12-04T03:34:58.232Z,6.5
2022-12-04T03:36:15.313Z,6.5
2022-12-04T03:37:32.288Z,6.6
2022-12-04T03:38:49.269Z,6.7
2022-12-04T03:40:06.283Z,6.7
2022-12-04T03:41:23.236Z,6.7
2022-12-04T03:42:40.274Z,6.8
2022-12-04T03:43:57.307Z,6.9
2022-12-04T03:45:14.262Z,6.9
2022-12-04T03:46:31.362Z,6.9
2022-12-04T03:47:48.244Z,6.9
2022-12-04T03:49:05.317Z,6.9
2022-12-04T03:50:22.253Z,6.9
2022-12-04T03:51:39.258Z,7
2022-12-04T03:52:56.279Z,7
2022-12-04T03:54:13.261Z,6.9
2022-12-04T03:55:30.307Z,6.9
2022-12-04T03:56:47.261Z,6.8
2022-12-04T03:58:04.437Z,6.6
2022-12-04T03:59:21.278Z,6.4
2022-12-04T04:00:38.553Z,6.3
2022-12-04T04:01:55.358Z,6.1
2022-12-04T04:03:12.284Z,6
2022-12-04T04:04:29.268Z,5.9
2022-12-04T04:05:46.316Z,5.9
2022-12-04T04:07:03.292Z,6
2022-12-04T04:08:20.332Z,6.1
2022-12-04T04:09:37.305Z,6.3
2022-12-04T04:10:54.315Z,6.4
2022-12-04T04:12:11.290Z,6.4
2022-12-04T04:13:28.337Z,6.5
2022-12-04T04:14:45.343Z,6.4
2022-12-04T04:16:02.383Z,6.4
2022-12-04T04:17:19.313Z,6.3
2022-12-04T04:18:36.316Z,6.3
2022-12-04T04:19:53.736Z,6.4
2022-12-04T04:21:10.287Z,6.4
2022-12-04T04:22:27.289Z,6.4
2022-12-04T04:23:44.293Z,6.4
2022-12-04T04:25:01.888Z,6.4
2022-12-04T04:26:19.300Z,6.3
2022-12-04T04:27:36.298Z,6.1
2022-12-04T04:28:53.381Z,6.1
2022-12-04T04:30:10.386Z,6.2
2022-12-04T04:31:27.371Z,6.2
2022-12-04T04:32:44.342Z,6.2
2022-12-04T04:34:01.360Z,6.1
2022-12-04T04:35:18.359Z,6
2022-12-04T04:36:35.315Z,6
2022-12-04T04:37:52.312Z,6
2022-12-04T04:39:09.315Z,6.1
2022-12-04T04:40:26.349Z,6.1
2022-12-04T04:41:43.349Z,6.1
2022-12-04T04:43:00.327Z,6.1
2022-12-04T04:44:17.332Z,6
2022-12-04T04:45:34.363Z,5.9
2022-12-04T04:46:51.406Z,5.9
2022-12-04T04:48:08.345Z,5.9
2022-12-04T04:49:25.357Z,5.9
2022-12-04T04:50:42.368Z,5.8
2022-12-04T04:51:59.387Z,5.9
2022-12-04T04:53:16.337Z,6
2022-12-04T04:54:33.361Z,6
2022-12-04T04:55:50.331Z,5.9
2022-12-04T04:57:07.368Z,5.9
2022-12-04T04:58:24.335Z,6
2022-12-04T04:59:41.365Z,6.1
2022-12-04T05:00:58.341Z,6.1
2022-12-04T05:02:15.440Z,6.1
2022-12-04T05:03:32.372Z,6.1
2022-12-04T05:04:49.552Z,6.1
2022-12-04T05:06:06.388Z,6.1
2022-12-04T05:07:23.357Z,6
2022-12-04T05:08:40.354Z,6
2022-12-04T05:09:57.721Z,6
2022-12-04T05:11:14.403Z,6
2022-12-04T05:12:31.411Z,6.1
2022-12-04T05:13:48.385Z,6.2
2022-12-04T05:15:05.560Z,6.2
2022-12-04T05:16:22.501Z,6.2
2022-12-04T05:17:39.394Z,6.2
2022-12-04T05:18:56.418Z,6.2
2022-12-04T05:20:13.371Z,6.2
2022-12-04T05:21:30.396Z,6.2
2022-12-04T05:22:47.464Z,6.1
2022-12-04T05:24:04.373Z,6.1
2022-12-04T05:25:21.377Z,6.1
2022-12-04T05:26:38.383Z,6.2
2022-12-04T05:27:55.408Z,6.2
2022-12-04T05:29:12.372Z,6
2022-12-04T05:30:29.380Z,5.8
2022-12-04T05:31:46.452Z,5.7
2022-12-04T05:33:03.397Z,5.5
2022-12-04T05:34:20.443Z,5.5
2022-12-04T05:35:37.424Z,5.5
2022-12-04T05:36:54.468Z,5.5
2022-12-04T05:38:11.395Z,5.6
2022-12-04T05:39:28.400Z,5.7
2022-12-04T05:40:45.395Z,5.8
2022-12-04T05:42:02.435Z,5.8
2022-12-04T05:43:19.475Z,6
2022-12-04T05:44:36.387Z,6.1
2022-12-04T05:45:53.403Z,6.2
2022-12-04T05:47:10.527Z,6.3
2022-12-04T05:48:27.573Z,6.3
2022-12-04T05:49:44.444Z,6.3
2022-12-04T05:51:01.447Z,6.2
2022-12-04T05:52:18.451Z,6.1
2022-12-04T05:53:35.439Z,6.1
2022-12-04T05:54:52.439Z,6
2022-12-04T05:56:09.413Z,5.9
2022-12-04T05:57:29.726Z,5.8
2022-12-04T05:58:43.479Z,5.7
2022-12-04T06:00:00.418Z,5.7
2022-12-04T06:01:17.447Z,5.7
2022-12-04T06:02:34.594Z,5.6
2022-12-04T06:03:51.472Z,5.5
2022-12-04T06:05:08.476Z,5.5
2022-12-04T06:06:25.429Z,5.6
2022-12-04T06:07:42.468Z,5.7
2022-12-04T06:08:59.491Z,6
2022-12-04T06:10:16.575Z,6.2
2022-12-04T06:11:33.433Z,6.4
2022-12-04T06:12:50.435Z,6.6
2022-12-04T06:14:07.457Z,6.9
2022-12-04T06:15:24.565Z,7.1
2022-12-04T06:16:41.563Z,7.3
2022-12-04T06:17:58.458Z,7.3
2022-12-04T06:19:15.457Z,7.2
2022-12-04T06:20:32.554Z,7.1
2022-12-04T06:21:49.442Z,6.9
2022-12-04T06:23:06.567Z,6.6
2022-12-04T06:24:23.488Z,6.5
2022-12-04T06:25:40.474Z,6.4
2022-12-04T06:27:25.990Z,6.2
2022-12-04T06:28:14.455Z,6.2
2022-12-04T06:29:31.491Z,6.2
2022-12-04T06:30:48.529Z,6.2
2022-12-04T06:32:05.498Z,6.2
2022-12-04T06:33:22.497Z,6.2
2022-12-04T06:34:39.496Z,6.2
2022-12-04T06:35:56.499Z,6.4
2022-12-04T06:37:13.470Z,6.4
2022-12-04T06:38:30.505Z,6.5
2022-12-04T06:39:47.465Z,6.5
2022-12-04T06:41:04.511Z,6.6
2022-12-04T06:42:21.504Z,6.6
2022-12-04T06:43:38.480Z,6.6
2022-12-04T06:44:55.482Z,6.6
2022-12-04T06:46:12.599Z,6.6
2022-12-04T06:47:29.502Z,6.5
2022-12-04T06:48:46.528Z,6.5
2022-12-04T06:50:03.717Z,6.4
2022-12-04T06:51:20.541Z,6.3
2022-12-04T06:52:37.495Z,6.4
2022-12-04T06:53:54.511Z,6.6
2022-12-04T06:55:11.490Z,6.8
2022-12-04T06:56:28.497Z,7
2022-12-04T06:57:45.492Z,7.2
2022-12-04T06:59:03.496Z,7.3
2022-12-04T07:00:20.525Z,7.6
2022-12-04T07:01:37.585Z,7.9
2022-12-04T07:02:54.614Z,8.1
2022-12-04T07:04:11.534Z,8.4
2022-12-04T07:05:28.518Z,8.5
2022-12-04T07:06:45.561Z,8.6
2022-12-04T07:08:02.666Z,8.6
2022-12-04T07:09:19.550Z,8.5
2022-12-04T07:10:36.509Z,8.4
2022-12-04T07:11:53.551Z,8.3
2022-12-04T07:13:10.529Z,8.1
2022-12-04T07:14:27.615Z,8
2022-12-04T07:15:44.686Z,7.8
2022-12-04T07:17:01.977Z,7.7
2022-12-04T07:18:18.541Z,7.7
2022-12-04T07:19:35.527Z,7.7
2022-12-04T07:20:52.516Z,7.8
2022-12-04T07:22:09.652Z,7.9
2022-12-04T07:23:26.526Z,8.1
2022-12-04T07:24:43.529Z,8.2
2022-12-04T07:26:00.560Z,8.4
2022-12-04T07:27:17.604Z,8.4
2022-12-04T07:28:34.548Z,8.5
2022-12-04T07:29:51.556Z,8.4
2022-12-04T07:31:08.994Z,8.4
2022-12-04T07:32:26.198Z,8.5
2022-12-04T07:33:42.579Z,8.6
2022-12-04T07:34:59.576Z,8.7
2022-12-04T07:36:16.543Z,8.8
2022-12-04T07:37:33.575Z,8.9
2022-12-04T07:38:50.618Z,9
2022-12-04T07:40:07.809Z,9.1
2022-12-04T07:41:24.580Z,9.1
2022-12-04T07:42:41.558Z,9.1
2022-12-04T07:43:58.560Z,8.9
2022-12-04T07:45:15.654Z,8.8
2022-12-04T07:46:32.615Z,8.8
2022-12-04T07:47:49.594Z,8.7
2022-12-04T07:49:06.559Z,8.5
2022-12-04T07:50:23.591Z,8.5
2022-12-04T07:51:40.586Z,8.6
2022-12-04T07:52:57.621Z,8.7
2022-12-04T07:54:15.334Z,8.6
2022-12-04T07:55:32.578Z,8.5
2022-12-04T07:56:49.625Z,8.4
2022-12-04T07:58:07.585Z,8.3
2022-12-04T07:59:24.706Z,8.3
2022-12-04T08:00:41.590Z,8.3
2022-12-04T08:01:58.646Z,8.2
2022-12-04T08:03:15.896Z,8.2
2022-12-04T08:04:32.700Z,8.2
2022-12-04T08:05:49.592Z,8.4
2022-12-04T08:07:06.616Z,8.6
2022-12-04T08:08:23.801Z,8.8
2022-12-04T08:09:40.585Z,8.9
2022-12-04T08:10:57.952Z,8.9
2022-12-04T08:12:14.621Z,8.9
2022-12-04T08:13:31.614Z,9.1
2022-12-04T08:14:48.637Z,9.3
2022-12-04T08:16:05.618Z,9.5
2022-12-04T08:17:22.648Z,9.6
2022-12-04T08:18:40.054Z,9.7
2022-12-04T08:19:57.019Z,9.8
2022-12-04T08:21:13.878Z,9.9
2022-12-04T08:22:30.654Z,10.2
2022-12-04T08:23:47.843Z,10.4
2022-12-04T08:25:04.655Z,10.4
2022-12-04T08:26:21.634Z,10.4
2022-12-04T08:27:40.212Z,10.4
2022-12-04T08:28:55.657Z,10.1
2022-12-04T08:30:12.954Z,9.9
2022-12-04T08:31:29.675Z,9.8
2022-12-04T08:32:46.624Z,9.6
2022-12-04T08:34:03.703Z,9.4
2022-12-04T08:35:20.653Z,9.2
2022-12-04T08:36:37.640Z,9.1
2022-12-04T08:37:54.693Z,9
2022-12-04T08:39:11.652Z,8.9
2022-12-04T08:40:28.659Z,8.9
2022-12-04T08:41:45.654Z,8.7
2022-12-04T08:43:02.635Z,8.6
2022-12-04T08:44:19.628Z,8.3
2022-12-04T08:45:36.675Z,8
2022-12-04T08:46:54.279Z,7.7
2022-12-04T08:48:11.649Z,7.5
2022-12-04T08:49:28.635Z,7.3
2022-12-04T08:50:45.705Z,7.3
2022-12-04T08:52:02.683Z,7.4
2022-12-04T08:53:19.758Z,7.6
2022-12-04T08:54:36.714Z,7.7
2022-12-04T08:55:53.803Z,7.8
2022-12-04T08:57:10.747Z,7.9
2022-12-04T08:58:28.483Z,8
2022-12-04T08:59:45.691Z,8.2
2022-12-04T09:01:02.759Z,8.5
2022-12-04T09:02:19.665Z,8.4
2022-12-04T09:03:36.662Z,8.3
2022-12-04T09:04:53.782Z,8.1
2022-12-04T09:06:10.713Z,8
2022-12-04T09:07:27.716Z,8
2022-12-04T09:08:44.675Z,8.1
2022-12-04T09:10:02.116Z,8.4
2022-12-04T09:11:18.688Z,8.5
2022-12-04T09:12:35.669Z,8.6
2022-12-04T09:13:52.703Z,8.8
2022-12-04T09:15:10.496Z,9.1
2022-12-04T09:16:27.825Z,9.5
2022-12-04T09:17:44.674Z,9.9
2022-12-04T09:19:01.721Z,10.3
2022-12-04T09:20:18.673Z,10.6
2022-12-04T09:21:35.742Z,10.4
2022-12-04T09:23:03.752Z,10.3
2022-12-04T09:24:09.683Z,10.4
2022-12-04T09:25:26.718Z,10.3
2022-12-04T09:26:43.777Z,10.2
2022-12-04T09:28:00.704Z,10.4
2022-12-04T09:29:17.687Z,10.6
2022-12-04T09:30:34.781Z,11.1
2022-12-04T09:31:51.779Z,11.6
2022-12-04T09:33:08.719Z,11.9
2022-12-04T09:34:25.735Z,12.1
2022-12-04T09:35:43.455Z,12.4
2022-12-04T09:37:00.718Z,12.8
2022-12-04T09:38:17.736Z,13.1
2022-12-04T09:39:35.707Z,13
2022-12-04T09:40:52.739Z,13.2
2022-12-04T09:42:09.753Z,13.4
2022-12-04T09:43:26.750Z,14
2022-12-04T09:44:43.749Z,14.7
2022-12-04T09:46:00.758Z,15.4
2022-12-04T09:47:17.895Z,15.5
2022-12-04T09:48:34.764Z,15.4
2022-12-04T09:49:51.800Z,15.3
2022-12-04T09:51:08.772Z,15.2
2022-12-04T09:52:26.581Z,14.6
2022-12-04T09:53:43.725Z,13.9
2022-12-04T09:55:00.759Z,13.3
2022-12-04T09:56:17.763Z,12.7
2022-12-04T09:57:34.822Z,12.6
2022-12-04T10:02:45.898Z,12.1
2022-12-04T10:04:06.231Z,12.2
2022-12-04T10:05:19.772Z,12.2
2022-12-04T10:06:37.307Z,12.1
2022-12-04T10:07:54.861Z,12.2
2022-12-04T10:09:11.964Z,12.6
2022-12-04T10:10:28.885Z,13.1
2022-12-04T10:11:45.785Z,13.6
2022-12-04T10:13:02.765Z,13.9
2022-12-04T10:14:19.813Z,13.9
2022-12-04T10:15:36.839Z,14.1
2022-12-04T10:16:53.760Z,14.3
2022-12-04T10:18:10.842Z,14.6
2022-12-04T10:19:27.786Z,14.6
2022-12-04T10:20:44.761Z,14.7
2022-12-04T10:22:01.790Z,14.6
2022-12-04T10:23:18.829Z,14.5
2022-12-04T10:24:36.936Z,14.6
2022-12-04T10:25:53.791Z,14.5
2022-12-04T10:27:10.808Z,14.4
2022-12-04T10:28:27.800Z,14.5
2022-12-04T10:29:44.785Z,14.6
2022-12-04T10:31:01.939Z,14.7
2022-12-04T10:32:18.791Z,14.9
2022-12-04T10:33:36.718Z,14.9
2022-12-04T10:34:56.560Z,14.8
2022-12-04T10:36:14.785Z,14.7
2022-12-04T10:37:31.794Z,14.6
2022-12-04T10:38:48.827Z,14.4
2022-12-04T10:40:05.835Z,14.2
2022-12-04T10:41:22.860Z,14.2
2022-12-04T10:42:39.968Z,14.1
2022-12-04T10:43:56.822Z,14.2
2022-12-04T10:45:13.805Z,14.2
2022-12-04T10:46:30.868Z,14.2
2022-12-04T10:47:47.938Z,14.2
2022-12-04T10:49:05.300Z,14.2
2022-12-04T10:50:25.076Z,14.4
2022-12-04T10:51:41.836Z,14.4
2022-12-04T10:52:58.887Z,14.3
2022-12-04T10:54:15.828Z,13.8
2022-12-04T10:55:32.812Z,13.3
2022-12-04T10:56:49.818Z,13.1
2022-12-04T10:58:06.997Z,12.9
2022-12-04T10:59:23.934Z,12.9
2022-12-04T11:00:40.892Z,12.9
2022-12-04T11:07:46.058Z,13
2022-12-04T11:09:02.954Z,12.8
2022-12-04T11:10:19.904Z,12.8
2022-12-04T11:11:36.844Z,12.9
2022-12-04T11:12:53.945Z,13.1
2022-12-04T11:14:10.885Z,13.3
2022-12-04T11:15:27.856Z,13.5
2022-12-04T11:16:46.064Z,13.8
2022-12-04T11:18:04.947Z,14
2022-12-04T11:19:22.853Z,14.3
2022-12-04T11:20:42.864Z,14.3
2022-12-04T11:21:56.876Z,14.3
2022-12-04T11:23:14.596Z,14
2022-12-04T11:24:31.915Z,13.9
2022-12-04T11:25:49.116Z,13.6
2022-12-04T11:27:05.905Z,13.6
2022-12-04T11:28:40.382Z,13.7
2022-12-04T11:29:39.898Z,13.9
2022-12-04T11:30:57.215Z,14
2022-12-04T11:32:13.891Z,14
2022-12-04T11:33:30.937Z,14.2
2022-12-04T11:34:47.882Z,14.7
2022-12-04T11:36:04.954Z,15.1
2022-12-04T11:37:21.881Z,15.3
2022-12-04T11:38:38.889Z,15.3
2022-12-04T11:39:56.494Z,15
2022-12-04T11:41:12.922Z,14.9
2022-12-04T11:42:29.913Z,14.7
2022-12-04T11:43:46.898Z,14.5
2022-12-04T11:45:04.120Z,14.4
2022-12-04T11:46:20.939Z,14.3
2022-12-04T11:47:37.902Z,14.3
2022-12-04T11:48:54.922Z,14.4
2022-12-04T11:50:11.919Z,14.6
2022-12-04T11:51:29.511Z,14.9
2022-12-04T11:52:46.891Z,15.1
2022-12-04T11:54:04.053Z,15.5
2022-12-04T11:59:15.936Z,15.7
2022-12-04T12:00:34.773Z,15.8
2022-12-04T12:01:56.419Z,15.9
2022-12-04T12:03:08.266Z,15.8
2022-12-04T12:04:25.123Z,15.3
2022-12-04T12:05:41.925Z,15.1
2022-12-04T12:06:59.004Z,15
2022-12-04T12:08:15.962Z,15
2022-12-04T12:09:32.943Z,14.9
2022-12-04T12:10:49.927Z,14.6
2022-12-04T12:12:06.983Z,14.4
2022-12-04T12:13:24.149Z,14.3
2022-12-04T12:14:40.996Z,14
2022-12-04T12:15:58.254Z,13.8
2022-12-04T12:17:14.982Z,13.8
2022-12-04T12:18:32.009Z,13.8
2022-12-04T12:19:48.963Z,13.4
2022-12-04T12:21:05.943Z,13.1
2022-12-04T12:22:22.977Z,13
2022-12-04T12:23:40.447Z,13.1
2022-12-04T12:24:58.357Z,13
2022-12-04T12:26:14.981Z,13
2022-12-04T12:27:31.977Z,12.9
2022-12-04T12:28:49.003Z,12.7
2022-12-04T12:30:06.148Z,12.6
2022-12-04T12:31:23.017Z,12.4
2022-12-04T12:32:39.978Z,12.1
2022-12-04T12:33:57.002Z,12
2022-12-04T12:35:14.052Z,12.1
2022-12-04T12:36:30.963Z,12.2
2022-12-04T12:37:47.988Z,12.4
2022-12-04T12:39:04.963Z,12.3
2022-12-04T12:40:21.998Z,12.2
2022-12-04T12:41:38.997Z,12.1
2022-12-04T12:42:58.350Z,11.9
2022-12-04T12:44:12.973Z,11.8
2022-12-04T12:45:30.100Z,11.8
2022-12-04T12:46:47.035Z,11.9
2022-12-04T12:48:04.014Z,11.9
2022-12-04T12:49:21.076Z,11.9
2022-12-04T12:50:37.985Z,11.8
2022-12-04T12:51:55.069Z,12
2022-12-04T12:53:12.005Z,12.2
2022-12-04T12:54:29.022Z,12.5
2022-12-04T12:55:46.008Z,12.8
2022-12-04T12:57:03.054Z,12.7
2022-12-04T12:58:20.023Z,12.6
2022-12-04T12:59:37.058Z,12.4
2022-12-04T13:00:54.108Z,12.1
2022-12-04T13:02:11.053Z,12.2
2022-12-04T13:03:28.099Z,12.3
2022-12-04T13:04:44.997Z,12.3
2022-12-04T13:06:02.100Z,12.1
2022-12-04T13:07:19.039Z,12
2022-12-04T13:08:36.020Z,11.8
2022-12-04T13:09:53.216Z,11.8
2022-12-04T13:11:10.103Z,11.7
2022-12-04T13:12:27.018Z,11.7
2022-12-04T13:13:44.015Z,11.7
2022-12-04T13:15:01.041Z,11.7
2022-12-04T13:16:18.120Z,11.7
2022-12-04T13:17:35.042Z,11.6
2022-12-04T13:18:52.027Z,11.5
2022-12-04T13:20:10.332Z,11.4
2022-12-04T13:21:26.101Z,11.3
2022-12-04T13:22:43.086Z,11.4
2022-12-04T13:24:00.033Z,11.5
2022-12-04T13:25:17.032Z,11.5
2022-12-04T13:26:34.112Z,11.4
2022-12-04T13:27:51.053Z,11.4
2022-12-04T13:29:08.025Z,11.3
2022-12-04T13:30:25.091Z,11.3
2022-12-04T13:31:42.114Z,11.2
2022-12-04T13:32:59.084Z,11
2022-12-04T13:34:16.052Z,10.7
2022-12-04T13:35:33.050Z,10.5
2022-12-04T13:36:50.154Z,10.4
2022-12-04T13:38:07.051Z,10.3
2022-12-04T13:39:24.054Z,10.3
2022-12-04T13:40:41.087Z,10.2
2022-12-04T13:41:58.058Z,10.1
2022-12-04T13:43:15.060Z,10.1
2022-12-04T13:44:32.548Z,10.1
2022-12-04T13:45:49.136Z,10.1
2022-12-04T13:47:06.110Z,10.1
2022-12-04T13:48:23.137Z,10
2022-12-04T13:49:40.260Z,9.7
2022-12-04T13:50:57.075Z,9.6
2022-12-04T13:52:14.059Z,9.6
2022-12-04T13:53:31.077Z,9.6
2022-12-04T13:54:48.093Z,9.7
2022-12-04T13:56:08.779Z,9.7
2022-12-04T13:57:22.090Z,9.7
2022-12-04T13:58:39.645Z,9.7
2022-12-04T13:59:57.090Z,9.6
2022-12-04T14:01:14.147Z,9.6
2022-12-04T14:02:31.094Z,9.6
2022-12-04T14:03:48.114Z,9.5
2022-12-04T14:05:05.128Z,9.5
2022-12-04T14:06:22.239Z,9.5
2022-12-04T14:07:39.179Z,9.5
2022-12-04T14:08:56.097Z,9.4
2022-12-04T14:10:13.101Z,9.4
2022-12-04T14:11:30.171Z,9.5
2022-12-04T14:12:47.116Z,9.5
2022-12-04T14:14:08.024Z,9.4
2022-12-04T14:15:21.115Z,9.3
2022-12-04T14:16:38.707Z,9.1
2022-12-04T14:17:55.102Z,9.1
2022-12-04T14:19:12.126Z,9
2022-12-04T14:20:29.164Z,9
2022-12-04T14:21:46.138Z,9
2022-12-04T14:23:03.116Z,9
2022-12-04T14:24:20.138Z,8.9
2022-12-04T14:25:37.138Z,8.7
2022-12-04T14:27:11.075Z,8.6
2022-12-04T14:28:11.168Z,8.5
2022-12-04T14:29:28.117Z,8.4
2022-12-04T14:30:45.251Z,8.3
2022-12-04T14:32:02.210Z,8
2022-12-04T14:33:19.902Z,7.8
2022-12-04T14:34:36.152Z,7.8
2022-12-04T14:35:53.167Z,7.8
2022-12-04T14:37:10.128Z,7.8
2022-12-04T14:38:27.143Z,7.8
2022-12-04T14:39:44.130Z,7.8
2022-12-04T14:41:01.155Z,7.6
2022-12-04T14:42:18.162Z,7.5
2022-12-04T14:43:35.162Z,7.6
2022-12-04T14:44:52.150Z,7.5
2022-12-04T14:46:09.201Z,7.5
2022-12-04T14:47:26.172Z,7.3
2022-12-04T14:48:43.389Z,7.2
2022-12-04T14:50:00.415Z,7.2
2022-12-04T14:51:17.184Z,7.1
2022-12-04T14:52:34.253Z,7.1
2022-12-04T14:53:51.184Z,7.1
2022-12-04T14:55:08.169Z,7
2022-12-04T14:56:25.153Z,7
2022-12-04T14:57:42.173Z,6.9
2022-12-04T14:58:59.252Z,6.9
2022-12-04T15:00:16.167Z,7
2022-12-04T15:01:33.160Z,7
2022-12-04T15:02:50.242Z,6.9
2022-12-04T15:04:07.268Z,6.9
2022-12-04T15:05:24.231Z,6.8
2022-12-04T15:06:41.165Z,6.6
2022-12-04T15:07:58.313Z,6.4
2022-12-04T15:09:15.235Z,6.4
2022-12-04T15:10:32.190Z,6.4
2022-12-04T15:11:49.176Z,6.4
2022-12-04T15:13:06.172Z,6.3
2022-12-04T15:14:23.685Z,6.3
2022-12-04T15:15:40.220Z,6.2
2022-12-04T15:16:57.319Z,6.1
2022-12-04T15:18:14.199Z,6.1
2022-12-04T15:19:31.205Z,6.1
2022-12-04T15:20:48.227Z,6.1
2022-12-04T15:22:10.158Z,6.1
2022-12-04T15:23:22.584Z,6.1
2022-12-04T15:24:39.218Z,6.2
2022-12-04T15:25:56.425Z,6.2
2022-12-04T15:27:13.193Z,6.2
2022-12-04T15:28:30.225Z,6.2
2022-12-04T15:29:47.193Z,6.2
2022-12-04T15:31:04.281Z,6.2
2022-12-04T15:32:21.202Z,6.2
2022-12-04T15:33:38.230Z,6.2
2022-12-04T15:34:55.406Z,6.1
2022-12-04T15:36:12.264Z,5.9
2022-12-04T15:37:29.208Z,5.8
2022-12-04T15:38:46.207Z,5.7
2022-12-04T15:40:03.474Z,5.7
2022-12-04T15:41:22.751Z,5.8
2022-12-04T15:42:37.210Z,5.8
2022-12-04T15:43:54.215Z,5.8
2022-12-04T15:45:11.278Z,6
2022-12-04T15:46:28.274Z,6.1
2022-12-04T15:47:45.253Z,6
2022-12-04T15:49:02.541Z,6.1
2022-12-04T15:50:19.259Z,6.1
2022-12-04T15:51:36.297Z,6.2
2022-12-04T15:52:53.286Z,6.3
2022-12-04T15:54:10.246Z,6.3
2022-12-04T15:55:27.236Z,6.3
2022-12-04T15:56:44.221Z,6.2
2022-12-04T15:58:01.265Z,6.2
2022-12-04T15:59:18.231Z,6.1
2022-12-04T16:00:35.285Z,6.1
2022-12-04T16:01:52.318Z,6
2022-12-04T16:03:09.269Z,5.9
2022-12-04T16:04:26.321Z,6
2022-12-04T16:05:43.272Z,6.1
2022-12-04T16:07:00.271Z,6
2022-12-04T16:08:17.245Z,5.9
2022-12-04T16:09:34.274Z,5.8
2022-12-04T16:10:51.270Z,5.7
2022-12-04T16:12:08.253Z,5.6
2022-12-04T16:13:25.252Z,5.5
2022-12-04T16:14:42.299Z,5.4
2022-12-04T16:15:59.298Z,5.4
2022-12-04T16:17:16.291Z,5.4
2022-12-04T16:18:33.263Z,5.4
2022-12-04T16:19:50.268Z,5.4
2022-12-04T16:21:07.318Z,5.5
2022-12-04T16:22:24.347Z,5.6
2022-12-04T16:23:41.269Z,5.6
2022-12-04T16:24:58.564Z,5.7
2022-12-04T16:26:15.269Z,5.8
2022-12-04T16:27:32.302Z,5.7
2022-12-04T16:28:49.275Z,5.5
2022-12-04T16:30:06.339Z,5.4
2022-12-04T16:31:23.334Z,5.3
2022-12-04T16:32:40.276Z,5.2
2022-12-04T16:33:57.334Z,5.2
2022-12-04T16:35:14.309Z,5.2
2022-12-04T16:36:31.297Z,5.2
2022-12-04T16:37:48.517Z,5.1
2022-12-04T16:39:05.301Z,5.1
2022-12-04T16:40:22.365Z,5.1
2022-12-04T16:41:39.290Z,5.1
2022-12-04T16:42:56.347Z,5.1
2022-12-04T16:44:13.287Z,5.1
2022-12-04T16:45:30.293Z,5
2022-12-04T16:46:47.359Z,5.1
2022-12-04T16:48:04.319Z,5.2
2022-12-04T16:49:21.301Z,5.3
2022-12-04T16:50:38.298Z,5.2
2022-12-04T16:51:55.337Z,5.2
2022-12-04T16:53:12.338Z,5.3
2022-12-04T16:54:29.471Z,5.3
2022-12-04T16:55:46.333Z,5.2
2022-12-04T16:57:03.363Z,5.1
2022-12-04T16:58:20.306Z,5
2022-12-04T16:59:37.339Z,4.9
2022-12-04T17:00:54.714Z,5
2022-12-04T17:02:11.386Z,5.1
2022-12-04T17:03:28.307Z,5.2
2022-12-04T17:04:45.385Z,5.2
2022-12-04T17:06:02.377Z,5.3
2022-12-04T17:07:19.313Z,5.5
2022-12-04T17:08:36.422Z,5.5
2022-12-04T17:09:53.376Z,5.4
2022-12-04T17:11:10.332Z,5.4
2022-12-04T17:12:27.329Z,5.4
2022-12-04T17:13:44.338Z,5.3
2022-12-04T17:15:01.386Z,5.2
2022-12-04T17:16:19.851Z,5.2
2022-12-04T17:17:35.332Z,5.1
2022-12-04T17:18:52.657Z,5.2
2022-12-04T17:20:09.432Z,5.2
2022-12-04T17:25:23.427Z,5.1
2022-12-04T17:26:40.352Z,5
2022-12-04T17:27:57.378Z,5
2022-12-04T17:29:14.364Z,5
2022-12-04T17:30:35.737Z,4.9
2022-12-04T17:31:48.388Z,4.9
2022-12-04T17:33:05.359Z,4.9
2022-12-04T17:34:22.365Z,5
2022-12-04T17:35:39.399Z,5
2022-12-04T17:36:56.370Z,5
2022-12-04T17:38:13.374Z,5.1
2022-12-04T17:39:30.389Z,5
2022-12-04T17:40:47.452Z,5
2022-12-04T17:42:04.605Z,4.9
2022-12-04T17:43:22.348Z,4.9
2022-12-04T17:44:39.543Z,5
2022-12-04T17:45:56.421Z,4.9
2022-12-04T17:47:13.431Z,4.9
2022-12-04T17:48:30.682Z,5
2022-12-04T17:49:48.431Z,5
2022-12-04T17:51:05.406Z,5.1
2022-12-04T17:52:22.394Z,5.2
2022-12-04T17:53:39.495Z,5.2
2022-12-04T17:54:56.693Z,5.2
2022-12-04T17:56:14.002Z,5.1